createdAt,value
2019-01-19T00:01:21.609Z,28.90
2019-01-19T00:04:09.411Z,28.00
2019-01-19T00:06:43.679Z,28.63
2019-01-19T00:09:15.343Z,29.80
2019-01-19T00:12:12.172Z,29.80
2019-01-19T00:15:01.799Z,31.13
2019-01-19T00:17:48.202Z,30.73
2019-01-19T00:20:33.778Z,30.23
2019-01-19T00:23:25.090Z,32.40
2019-01-19T00:26:30.959Z,32.17
2019-01-19T00:29:21.501Z,31.53
2019-01-19T00:31:59.599Z,30.73
2019-01-19T00:34:38.750Z,31.30
2019-01-19T00:37:12.662Z,30.47
2019-01-19T00:39:57.319Z,31.17
2019-01-19T00:42:45.086Z,31.87
2019-01-19T00:45:32.912Z,31.30
2019-01-19T00:48:19.489Z,33.13
2019-01-19T00:51:19.497Z,32.73
2019-01-19T00:53:51.575Z,33.53
2019-01-19T00:56:39.831Z,31.43
2019-01-19T00:59:10.644Z,31.97
2019-01-19T01:01:48.688Z,33.57
2019-01-19T01:04:30.538Z,32.77
2019-01-19T01:07:24.400Z,32.27
2019-01-19T01:09:58.221Z,32.50
2019-01-19T01:12:34.065Z,32.23
2019-01-19T01:15:17.747Z,31.67
2019-01-19T01:17:54.600Z,29.53
2019-01-19T01:20:42.458Z,31.53
2019-01-19T01:23:36.237Z,31.97
2019-01-19T01:26:45.322Z,32.20
2019-01-19T01:29:42.313Z,33.57
2019-01-19T01:32:14.742Z,33.33
2019-01-19T01:35:08.638Z,33.43
2019-01-19T01:37:41.838Z,32.00
2019-01-19T01:40:47.714Z,31.63
2019-01-19T01:43:19.086Z,32.00
2019-01-19T01:45:55.734Z,33.97
2019-01-19T01:48:35.246Z,32.67
2019-01-19T01:51:26.911Z,31.13
2019-01-19T01:54:26.948Z,33.93
2019-01-19T01:56:56.702Z,31.93
2019-01-19T01:59:47.342Z,34.27
2019-01-19T02:02:35.139Z,31.50
2019-01-19T02:05:10.451Z,30.27
2019-01-19T02:07:55.635Z,31.57
2019-01-19T02:10:52.277Z,33.80
2019-01-19T02:13:36.045Z,31.23
2019-01-19T02:16:26.958Z,30.93
2019-01-19T02:18:59.394Z,31.17
2019-01-19T02:21:46.643Z,30.73
2019-01-19T02:24:30.079Z,30.70
2019-01-19T02:27:29.867Z,30.80
2019-01-19T02:30:16.058Z,30.10
2019-01-19T02:33:07.143Z,31.47
2019-01-19T02:35:49.721Z,32.13
2019-01-19T02:38:25.067Z,31.30
2019-01-19T02:41:11.267Z,31.80
2019-01-19T02:44:05.343Z,32.33
2019-01-19T02:46:51.706Z,31.73
2019-01-19T02:49:32.516Z,28.67
2019-01-19T02:52:32.514Z,32.30
2019-01-19T02:55:14.703Z,30.97
2019-01-19T02:58:05.405Z,32.30
2019-01-19T03:00:38.700Z,28.93
2019-01-19T03:03:26.503Z,29.63
2019-01-19T03:05:58.321Z,30.53
2019-01-19T03:08:31.930Z,30.07
2019-01-19T03:11:12.260Z,30.93
2019-01-19T03:13:47.238Z,31.43
2019-01-19T03:16:35.347Z,29.33
2019-01-19T03:19:41.292Z,30.47
2019-01-19T03:22:40.966Z,31.00
2019-01-19T03:25:28.736Z,30.77
2019-01-19T03:28:04.319Z,29.63
2019-01-19T03:30:38.834Z,28.67
2019-01-19T03:33:24.017Z,29.37
2019-01-19T03:36:04.140Z,28.73
2019-01-19T03:38:45.169Z,29.27
2019-01-19T03:41:50.965Z,28.60
2019-01-19T03:44:26.242Z,28.33
2019-01-19T03:47:17.143Z,30.07
2019-01-19T03:50:06.335Z,27.30
2019-01-19T03:52:50.548Z,28.03
2019-01-19T03:55:56.472Z,27.67
2019-01-19T03:58:31.365Z,30.17
2019-01-19T04:01:12.249Z,29.77
2019-01-19T04:04:00.116Z,29.10
2019-01-19T04:07:00.005Z,29.87
2019-01-19T04:09:35.114Z,28.43
2019-01-19T04:12:31.980Z,29.90
2019-01-19T04:15:22.108Z,28.50
2019-01-19T04:18:00.156Z,30.37
2019-01-19T04:20:38.638Z,29.97
2019-01-19T04:23:07.376Z,29.57
2019-01-19T04:25:43.764Z,30.13
2019-01-19T04:28:13.714Z,29.93
2019-01-19T04:30:42.297Z,28.77
2019-01-19T04:33:10.663Z,29.20
2019-01-19T04:35:39.311Z,28.43
2019-01-19T04:38:09.990Z,29.27
2019-01-19T04:40:38.659Z,28.10
2019-01-19T04:43:07.358Z,28.37
2019-01-19T04:45:35.969Z,26.37
2019-01-19T04:48:04.527Z,28.03
2019-01-19T04:50:33.171Z,27.37
2019-01-19T04:53:03.179Z,29.13
2019-01-19T04:55:31.770Z,28.13
2019-01-19T04:58:00.312Z,28.03
2019-01-19T05:00:28.734Z,28.53
2019-01-19T05:02:57.206Z,27.40
2019-01-19T05:05:25.665Z,30.07
2019-01-19T05:07:54.146Z,29.50
2019-01-19T05:10:23.460Z,29.17
2019-01-19T05:12:53.137Z,30.50
2019-01-19T05:15:22.072Z,29.43
2019-01-19T05:17:50.580Z,29.57
2019-01-19T05:20:19.206Z,28.67
2019-01-19T05:22:51.035Z,28.50
2019-01-19T05:25:19.540Z,27.30
2019-01-19T05:27:48.272Z,29.17
2019-01-19T05:30:17.670Z,28.77
2019-01-19T05:32:46.169Z,27.80
2019-01-19T05:35:15.075Z,28.70
2019-01-19T05:37:43.591Z,27.93
2019-01-19T05:40:12.412Z,29.43
2019-01-19T05:42:40.892Z,28.13
2019-01-19T05:45:10.199Z,28.13
2019-01-19T05:47:38.654Z,29.33
2019-01-19T05:50:09.539Z,28.50
2019-01-19T05:52:40.257Z,29.80
2019-01-19T05:55:08.660Z,27.17
2019-01-19T05:57:37.357Z,27.57
2019-01-19T06:00:08.079Z,26.67
2019-01-19T06:02:36.713Z,27.50
2019-01-19T06:05:05.335Z,27.13
2019-01-19T06:07:33.760Z,27.07
2019-01-19T06:10:02.417Z,26.57
2019-01-19T06:12:30.998Z,26.23
2019-01-19T06:14:59.585Z,26.33
2019-01-19T06:17:28.113Z,26.23
2019-01-19T06:19:56.695Z,26.53
2019-01-19T06:22:25.394Z,27.20
2019-01-19T06:24:54.915Z,27.73
2019-01-19T06:27:23.499Z,26.73
2019-01-19T06:29:51.944Z,27.77
2019-01-19T06:32:20.575Z,26.97
2019-01-19T06:34:48.985Z,26.37
2019-01-19T06:37:17.510Z,26.47
2019-01-19T06:39:46.085Z,26.93
2019-01-19T06:42:14.508Z,25.80
2019-01-19T06:44:43.480Z,26.00
2019-01-19T06:47:12.123Z,27.13
2019-01-19T06:49:40.711Z,27.00
2019-01-19T06:52:09.108Z,26.60
2019-01-19T06:54:37.798Z,26.60
2019-01-19T06:57:06.278Z,26.27
2019-01-19T06:59:34.756Z,25.43
2019-01-19T07:02:03.359Z,26.27
2019-01-19T07:04:31.914Z,25.97
2019-01-19T07:07:02.771Z,26.00
2019-01-19T07:09:30.612Z,25.40
2019-01-19T07:11:59.470Z,25.80
2019-01-19T07:14:28.264Z,25.27
2019-01-19T07:16:56.779Z,25.33
2019-01-19T07:19:25.308Z,26.27
2019-01-19T07:21:54.065Z,23.87
2019-01-19T07:24:22.591Z,22.43
2019-01-19T07:26:54.898Z,24.10
2019-01-19T07:29:23.573Z,23.53
2019-01-19T07:32:00.182Z,24.93
2019-01-19T07:34:31.914Z,22.13
2019-01-19T07:37:01.976Z,22.90
2019-01-19T07:39:30.570Z,21.07
2019-01-19T07:41:59.073Z,21.67
2019-01-19T07:44:27.670Z,21.43
2019-01-19T07:46:56.955Z,22.37
2019-01-19T07:49:25.469Z,22.87
2019-01-19T07:51:54.006Z,23.73
2019-01-19T07:54:22.691Z,22.87
2019-01-19T07:56:52.192Z,22.53
2019-01-19T07:59:22.741Z,21.90
2019-01-19T08:01:51.639Z,22.87
2019-01-19T08:04:21.755Z,22.53
2019-01-19T08:06:55.368Z,22.57
2019-01-19T08:09:23.934Z,21.77
2019-01-19T08:11:52.502Z,20.73
2019-01-19T08:14:22.112Z,23.30
2019-01-19T08:16:50.753Z,21.47
2019-01-19T08:19:19.300Z,21.07
2019-01-19T08:21:48.026Z,22.53
2019-01-19T08:24:19.793Z,22.00
2019-01-19T08:26:48.307Z,22.27
2019-01-19T08:29:18.392Z,20.37
2019-01-19T08:31:49.775Z,21.53
2019-01-19T08:34:18.714Z,20.43
2019-01-19T08:36:47.272Z,20.73
2019-01-19T08:39:18.898Z,19.73
2019-01-19T08:41:47.373Z,20.53
2019-01-19T08:44:15.766Z,21.80
2019-01-19T08:46:47.295Z,19.73
2019-01-19T08:49:15.743Z,20.10
2019-01-19T08:51:44.243Z,19.77
2019-01-19T08:54:12.617Z,19.90
2019-01-19T08:56:41.204Z,19.33
2019-01-19T08:59:09.892Z,18.80
2019-01-19T09:01:38.555Z,18.63
2019-01-19T09:04:08.381Z,18.03
2019-01-19T09:06:37.169Z,19.07
2019-01-19T09:09:06.868Z,18.17
2019-01-19T09:11:35.577Z,18.37
2019-01-19T09:14:05.908Z,18.13
2019-01-19T09:16:39.610Z,17.67
2019-01-19T09:19:06.112Z,18.33
2019-01-19T09:21:45.931Z,18.73
2019-01-19T09:24:19.569Z,19.13
2019-01-19T09:26:48.080Z,17.37
2019-01-19T09:29:16.711Z,18.33
2019-01-19T09:31:48.470Z,16.97
2019-01-19T09:34:33.958Z,17.53
2019-01-19T09:37:01.762Z,18.37
2019-01-19T09:39:37.253Z,17.53
2019-01-19T09:42:06.731Z,16.93
2019-01-19T09:44:35.553Z,16.53
2019-01-19T09:47:04.186Z,16.27
2019-01-19T09:49:32.784Z,16.53
2019-01-19T09:52:01.675Z,17.97
2019-01-19T09:54:30.568Z,16.33
2019-01-19T09:56:59.537Z,16.57
2019-01-19T09:59:28.214Z,17.40
2019-01-19T10:01:58.418Z,16.50
2019-01-19T10:04:27.413Z,15.67
2019-01-19T10:06:57.325Z,15.07
2019-01-19T10:09:26.216Z,16.07
2019-01-19T10:11:55.571Z,15.10
2019-01-19T10:14:24.359Z,14.50
2019-01-19T10:16:53.037Z,14.17
2019-01-19T10:19:21.796Z,13.67
2019-01-19T10:21:52.268Z,13.80
2019-01-19T10:24:20.935Z,13.40
2019-01-19T10:26:50.110Z,13.77
2019-01-19T10:29:20.236Z,13.23
2019-01-19T10:31:49.049Z,13.37
2019-01-19T10:34:17.788Z,13.03
2019-01-19T10:36:46.616Z,12.77
2019-01-19T10:39:15.336Z,12.17
2019-01-19T10:41:44.183Z,12.33
2019-01-19T10:44:14.266Z,11.77
2019-01-19T10:46:45.588Z,12.43
2019-01-19T10:49:16.697Z,11.87
2019-01-19T10:51:46.676Z,11.83
2019-01-19T10:54:15.364Z,12.13
2019-01-19T10:56:44.154Z,11.87
2019-01-19T10:59:12.942Z,12.40
2019-01-19T11:01:41.763Z,12.37
2019-01-19T11:04:10.399Z,11.53
2019-01-19T11:06:39.230Z,11.03
2019-01-19T11:09:08.114Z,10.93
2019-01-19T11:11:37.034Z,11.67
2019-01-19T11:14:05.906Z,11.80
2019-01-19T11:16:34.694Z,12.60
2019-01-19T11:19:04.200Z,12.47
2019-01-19T11:21:32.831Z,11.23
2019-01-19T11:24:01.386Z,11.17
2019-01-19T11:26:30.071Z,11.00
2019-01-19T11:28:58.887Z,11.90
2019-01-19T11:31:27.986Z,10.47
2019-01-19T11:33:56.833Z,11.23
2019-01-19T11:36:25.462Z,11.10
2019-01-19T11:38:55.140Z,10.50
2019-01-19T11:41:23.799Z,9.80
2019-01-19T11:43:55.932Z,10.50
2019-01-19T11:46:26.489Z,10.43
2019-01-19T11:48:55.547Z,10.90
2019-01-19T11:51:24.105Z,11.00
2019-01-19T11:53:52.719Z,11.20
2019-01-19T11:56:42.689Z,10.27
2019-01-19T11:59:11.699Z,10.57
2019-01-19T12:01:40.348Z,10.83
2019-01-19T12:04:11.698Z,10.83
2019-01-19T12:06:40.461Z,10.77
2019-01-19T12:09:09.088Z,11.53
2019-01-19T12:11:38.826Z,10.30
2019-01-19T12:14:07.669Z,11.57
2019-01-19T12:16:39.242Z,11.03
2019-01-19T12:19:20.451Z,10.53
2019-01-19T12:21:58.324Z,10.70
2019-01-19T12:24:40.323Z,10.80
2019-01-19T12:27:14.002Z,10.97
2019-01-19T12:33:04.729Z,10.10
2019-01-19T12:35:35.885Z,10.00
2019-01-19T12:41:30.438Z,10.50
2019-01-19T12:43:59.390Z,9.87
2019-01-19T12:46:29.254Z,9.30
2019-01-19T12:49:00.905Z,10.40
2019-01-19T12:51:29.490Z,10.23
2019-01-19T12:53:58.335Z,10.57
2019-01-19T12:56:56.404Z,10.40
2019-01-19T12:59:25.163Z,9.83
2019-01-19T13:01:58.164Z,10.03
2019-01-19T13:04:27.170Z,9.27
2019-01-19T13:07:00.413Z,9.07
2019-01-19T13:09:30.576Z,8.83
2019-01-19T13:12:08.036Z,9.27
2019-01-19T13:14:39.028Z,9.33
2019-01-19T13:17:25.879Z,10.10
2019-01-19T13:20:19.102Z,10.07
2019-01-19T13:23:15.935Z,9.00
2019-01-19T13:26:06.754Z,9.17
2019-01-19T13:28:54.104Z,8.50
2019-01-19T13:31:27.707Z,9.07
2019-01-19T13:34:19.559Z,9.27
2019-01-19T13:37:10.401Z,9.00
2019-01-19T13:40:03.154Z,8.70
2019-01-19T13:42:49.752Z,8.47
2019-01-19T13:45:41.032Z,9.40
2019-01-19T13:48:25.171Z,9.37
2019-01-19T13:51:28.234Z,8.83
2019-01-19T13:54:16.369Z,9.73
2019-01-19T13:57:11.763Z,9.80
2019-01-19T13:59:47.562Z,10.17
2019-01-19T14:02:44.821Z,10.43
2019-01-19T14:05:47.887Z,10.83
2019-01-19T14:08:35.922Z,10.77
2019-01-19T14:11:11.113Z,11.57
2019-01-19T14:14:08.471Z,12.43
2019-01-19T14:17:14.770Z,12.40
2019-01-19T14:19:59.735Z,12.93
2019-01-19T14:22:50.713Z,13.77
2019-01-19T14:25:33.988Z,14.57
2019-01-19T14:28:27.376Z,13.40
2019-01-19T14:31:19.288Z,14.00
2019-01-19T14:34:10.591Z,14.40
2019-01-19T14:36:55.274Z,14.03
2019-01-19T14:39:48.020Z,13.70
2019-01-19T14:45:02.780Z,14.27
2019-01-19T14:47:37.912Z,14.73
2019-01-19T14:50:28.502Z,14.10
2019-01-19T14:53:22.498Z,14.33
2019-01-19T14:56:20.508Z,13.67
2019-01-19T14:58:57.297Z,14.13
2019-01-19T15:02:44.255Z,14.30
2019-01-19T15:05:35.882Z,13.67
2019-01-19T15:08:40.446Z,13.70
2019-01-19T15:11:49.552Z,13.30
2019-01-19T15:23:47.002Z,13.20
2019-01-19T15:26:56.628Z,14.70
2019-01-19T15:29:49.374Z,15.27
2019-01-19T15:32:38.429Z,14.47
2019-01-19T15:35:20.884Z,14.03
2019-01-19T15:38:26.196Z,15.33
2019-01-19T15:41:11.812Z,14.33
2019-01-19T15:43:49.766Z,14.73
2019-01-19T16:45:20.106Z,15.00
2019-01-19T16:48:31.352Z,13.57
2019-01-19T17:03:24.222Z,13.77
2019-01-19T17:13:51.220Z,13.93
2019-01-19T17:16:45.589Z,14.43
2019-01-19T17:19:33.969Z,16.07
2019-01-19T17:38:41.435Z,16.10
2019-01-19T17:48:45.558Z,16.60
2019-01-19T17:51:51.908Z,15.53
2019-01-19T17:58:06.604Z,15.97
2019-01-19T18:00:52.596Z,17.27
2019-01-19T18:03:39.445Z,17.60
2019-01-19T18:06:21.211Z,18.67
2019-01-19T18:09:16.229Z,17.73
2019-01-19T18:12:24.546Z,17.60
2019-01-19T18:15:27.704Z,16.50
2019-01-19T18:18:18.263Z,16.63
2019-01-19T18:21:17.207Z,17.47
2019-01-19T18:24:06.626Z,16.57
2019-01-19T18:27:03.512Z,16.80
2019-01-19T18:29:50.850Z,16.93
2019-01-19T18:32:29.397Z,16.97
2019-01-19T18:35:37.779Z,16.23
2019-01-19T18:38:33.659Z,16.97
2019-01-19T18:41:22.545Z,16.77
2019-01-19T18:44:23.604Z,17.37
2019-01-19T18:47:26.136Z,16.20
2019-01-19T18:50:33.843Z,16.17
2019-01-19T18:53:41.688Z,16.17
2019-01-19T19:14:03.485Z,14.90
2019-01-19T19:17:05.860Z,15.90
2019-01-19T19:19:42.500Z,15.97
2019-01-19T19:22:24.562Z,16.00
2019-01-19T19:25:17.423Z,15.70
2019-01-19T19:31:20.188Z,15.80
2019-01-19T19:47:33.613Z,15.93
2019-01-19T19:50:20.446Z,17.20
2019-01-19T19:52:54.541Z,16.80
2019-01-19T19:55:23.899Z,16.37
2019-01-19T19:57:55.261Z,16.27
2019-01-19T20:00:25.115Z,15.63
2019-01-19T20:02:53.962Z,16.07
2019-01-19T20:05:28.943Z,15.90
2019-01-19T20:08:06.022Z,14.83
2019-01-19T20:10:32.125Z,15.53
2019-01-19T20:13:01.331Z,15.27
2019-01-19T20:15:31.103Z,15.73
2019-01-19T20:18:02.222Z,14.83
2019-01-19T20:20:30.922Z,14.80
2019-01-19T20:23:02.460Z,15.43
2019-01-19T20:25:31.276Z,15.70
2019-01-19T20:28:02.166Z,15.27
2019-01-19T20:30:33.842Z,14.77
2019-01-19T20:33:05.680Z,15.43
2019-01-19T20:35:37.190Z,15.40
2019-01-19T20:38:05.834Z,14.80
2019-01-19T20:40:38.451Z,15.50
2019-01-19T20:43:07.161Z,15.13
2019-01-19T20:45:36.289Z,14.07
2019-01-19T20:48:05.016Z,15.83
2019-01-19T20:50:34.414Z,14.00
2019-01-19T20:53:05.421Z,15.10
2019-01-19T20:55:36.336Z,15.07
2019-01-19T20:58:10.304Z,15.03
2019-01-19T21:00:43.951Z,14.93
2019-01-19T21:03:16.453Z,14.93
2019-01-19T21:05:46.261Z,14.73
2019-01-19T21:08:14.872Z,14.60
2019-01-19T21:10:46.883Z,14.43
2019-01-19T21:13:18.154Z,12.97
2019-01-19T21:15:53.992Z,14.57
2019-01-19T21:18:22.638Z,13.60
2019-01-19T21:20:57.729Z,13.30
2019-01-19T21:23:26.551Z,14.50
2019-01-19T21:25:59.364Z,14.63
2019-01-19T21:28:31.423Z,15.03
2019-01-19T21:31:00.494Z,15.40
2019-01-19T21:33:40.239Z,13.37
2019-01-19T21:36:13.534Z,13.53
2019-01-19T21:38:45.399Z,14.67
2019-01-19T21:41:18.310Z,15.23
2019-01-19T21:43:51.877Z,14.97
2019-01-19T21:46:23.256Z,15.63
2019-01-19T21:48:53.571Z,14.10
2019-01-19T21:51:24.308Z,12.80
2019-01-19T21:53:53.210Z,12.53
2019-01-19T21:56:23.335Z,13.60
2019-01-19T21:58:52.506Z,13.07
2019-01-19T22:01:21.830Z,13.43
2019-01-19T22:03:55.274Z,12.80
2019-01-19T22:06:31.800Z,12.73
2019-01-19T22:09:03.783Z,12.93
2019-01-19T22:11:32.650Z,13.17
2019-01-19T22:14:04.436Z,12.77
2019-01-19T22:16:33.595Z,13.13
2019-01-19T22:19:20.119Z,12.27
2019-01-19T22:21:52.415Z,11.67
2019-01-19T22:24:26.684Z,12.27
2019-01-19T22:26:56.131Z,11.60
2019-01-19T22:29:36.220Z,13.03
2019-01-19T22:32:09.669Z,12.77
2019-01-19T22:34:42.136Z,12.23
2019-01-19T22:37:17.074Z,12.27
2019-01-19T22:39:58.733Z,12.37
2019-01-19T22:42:31.440Z,12.97
2019-01-19T22:45:05.457Z,11.63
2019-01-19T22:47:38.999Z,12.90
2019-01-19T22:50:11.380Z,11.80
2019-01-19T22:52:47.497Z,13.03
2019-01-19T22:55:19.216Z,11.90
2019-01-19T22:57:52.813Z,12.80
2019-01-19T23:00:29.151Z,11.80
2019-01-19T23:03:05.251Z,12.73
2019-01-19T23:05:35.464Z,12.13
2019-01-19T23:08:05.355Z,13.13
2019-01-19T23:10:34.566Z,12.20
2019-01-19T23:13:06.436Z,12.20
2019-01-19T23:16:05.165Z,12.07
2019-01-19T23:21:41.081Z,11.43
2019-01-19T23:24:17.222Z,12.63
2019-01-19T23:26:54.689Z,12.37
2019-01-19T23:29:28.496Z,12.33
2019-01-19T23:32:01.441Z,12.23
2019-01-19T23:34:34.988Z,12.53
2019-01-19T23:37:05.831Z,12.33
2019-01-19T23:39:34.461Z,13.00
2019-01-19T23:42:03.280Z,12.87
2019-01-19T23:44:36.805Z,12.50
2019-01-19T23:47:05.097Z,12.90
2019-01-19T23:49:35.079Z,12.27
2019-01-19T23:52:03.715Z,12.43
2019-01-19T23:54:34.237Z,12.57
2019-01-19T23:57:02.715Z,12.40
2019-01-19T23:59:31.504Z,11.50
